Time;durP1;ratioP1;P1;durP2;ratioP2;P2;SDS_P1;SDS_P2;PMS_P1;PMS_P2;Temp;Humidity;BMP_temperature;BMP_pressure;BME280_temperature;BME280_humidity;BME280_pressure;Samples;Min_cycle;Max_cycle;Signal;HPM_P1;HPM_P2
2022/06/20 00:00:39;;;;;;;5.20;3.40;;;;;;;25.74;47.06;100877.52;104651;1306;60468;-82
2022/06/20 00:03:05;;;;;;;4.70;3.40;;;;;;;25.74;47.05;100873.91;104645;1308;60593;-82
2022/06/20 00:05:32;;;;;;;5.00;3.60;;;;;;;25.74;46.89;100871.57;104610;1309;60580;-83
2022/06/20 00:07:58;;;;;;;5.00;3.70;;;;;;;25.74;46.83;100870.15;104639;1309;60648;-82
2022/06/20 00:10:25;;;;;;;5.80;3.50;;;;;;;25.74;46.98;100864.02;104639;1309;60708;-82
2022/06/20 00:12:51;;;;;;;5.70;3.60;;;;;;;25.74;46.97;100859.54;104639;1309;60498;-82
2022/06/20 00:15:34;;;;;;;4.40;3.30;;;;;;;25.74;47.11;100862.05;104662;1306;60468;-82
2022/06/20 00:18:00;;;;;;;5.80;3.60;;;;;;;25.74;46.89;100856.27;104542;1306;61600;-82
2022/06/20 00:20:26;;;;;;;4.50;3.20;;;;;;;25.73;46.96;100854.86;104531;1309;60427;-82
2022/06/20 00:22:53;;;;;;;5.80;3.40;;;;;;;25.73;47.09;100849.84;104673;1309;60453;-82
2022/06/20 00:25:19;;;;;;;5.10;3.60;;;;;;;25.73;47.12;100848.95;104634;1309;60969;-82
2022/06/20 00:27:46;;;;;;;5.40;3.90;;;;;;;25.73;47.04;100849.32;104672;1308;60592;-82
2022/06/20 00:30:13;;;;;;;4.60;3.40;;;;;;;25.73;46.97;100845.36;104635;1307;60458;-82
2022/06/20 00:32:38;;;;;;;5.80;3.70;;;;;;;25.73;47.15;100844.65;104646;1309;60520;-82
2022/06/20 00:35:04;;;;;;;5.50;3.90;;;;;;;25.72;47.13;100838.53;104667;1306;60423;-82
2022/06/20 00:37:30;;;;;;;5.60;3.60;;;;;;;25.73;47.25;100832.39;104681;1307;60357;-82
2022/06/20 00:39:56;;;;;;;5.40;3.50;;;;;;;25.73;47.12;100833.66;104673;1306;60578;-82
2022/06/20 00:42:21;;;;;;;4.90;3.30;;;;;;;25.73;47.16;100832.57;104618;1309;60468;-82
2022/06/20 00:44:50;;;;;;;5.30;3.10;;;;;;;25.72;47.02;100825.58;104687;1309;60620;-82
2022/06/20 00:47:17;;;;;;;5.10;3.70;;;;;;;25.72;47.20;100829.55;104532;1308;61320;-82
2022/06/20 00:49:56;;;;;;;4.60;3.50;;;;;;;25.72;47.05;100831.17;104712;1307;60415;-82
2022/06/20 00:52:29;;;;;;;4.60;3.40;;;;;;;25.72;47.25;100824.02;104629;1309;74007;-82
2022/06/20 00:55:05;;;;;;;5.10;3.40;;;;;;;25.72;47.14;100819.52;104625;1309;76412;-82
2022/06/20 00:57:33;;;;;;;4.50;3.40;;;;;;;25.71;47.21;100815.75;104647;1307;60567;-82
2022/06/20 01:00:12;;;;;;;5.50;3.60;;;;;;;25.71;47.14;100819.38;104650;1308;60697;-81
2022/06/20 01:02:43;;;;;;;4.20;3.30;;;;;;;25.71;47.16;100816.84;104672;1307;72869;-82
2022/06/20 01:05:27;;;;;;;5.10;3.30;;;;;;;25.71;47.14;100809.30;104514;1308;75815;-82
2022/06/20 01:08:07;;;;;;;5.50;3.70;;;;;;;25.71;47.18;100809.27;104637;1307;61463;-83
2022/06/20 01:10:47;;;;;;;4.80;3.50;;;;;;;25.71;47.14;100809.66;104670;1306;60457;-82
2022/06/20 01:13:15;;;;;;;5.50;3.10;;;;;;;25.70;47.10;100808.45;104661;1308;73105;-82
2022/06/20 01:15:41;;;;;;;5.60;3.40;;;;;;;25.70;47.24;100811.16;104624;1309;73799;-82
2022/06/20 01:18:15;;;;;;;5.70;3.30;;;;;;;25.71;47.14;100811.30;104647;1309;60450;-82
2022/06/20 01:20:41;;;;;;;5.10;3.30;;;;;;;25.70;47.19;100810.30;104665;1306;61844;-82
2022/06/20 01:23:16;;;;;;;5.20;3.10;;;;;;;25.70;47.17;100808.14;104674;1308;60478;-82
2022/06/20 01:25:55;;;;;;;6.30;3.50;;;;;;;25.70;47.21;100809.20;104665;1307;73503;-82
2022/06/20 01:28:24;;;;;;;6.10;3.40;;;;;;;25.70;47.20;100811.00;104675;1309;60546;-82
2022/06/20 01:30:50;;;;;;;4.20;3.20;;;;;;;25.70;47.11;100812.80;104689;1306;60433;-82
2022/06/20 01:33:18;;;;;;;6.00;3.50;;;;;;;25.70;47.26;100812.10;104642;1309;60347;-82
2022/06/20 01:38:28;;;;;;;5.80;3.50;;;;;;;25.70;47.32;100809.04;104677;1306;60335;-82
2022/06/20 01:43:38;;;;;;;5.80;3.10;;;;;;;25.69;47.25;100805.83;104645;1309;72828;-82
2022/06/20 01:46:09;;;;;;;4.40;3.40;;;;;;;25.69;47.16;100805.86;104633;1309;60979;-82
2022/06/20 01:48:36;;;;;;;5.00;3.50;;;;;;;25.69;47.29;100807.10;104537;1308;61454;-82
2022/06/20 01:51:02;;;;;;;4.60;3.40;;;;;;;25.69;47.23;100798.31;104674;1309;60334;-82
2022/06/20 01:53:29;;;;;;;5.50;3.60;;;;;;;25.69;47.15;100801.19;104625;1308;60584;-82
2022/06/20 01:55:54;;;;;;;5.00;3.40;;;;;;;25.69;47.31;100799.23;104520;1308;60334;-82
2022/06/20 01:58:33;;;;;;;4.90;3.40;;;;;;;25.69;47.30;100804.09;104656;1307;60584;-82
2022/06/20 02:00:59;;;;;;;5.50;3.40;;;;;;;25.68;47.26;100809.16;104642;1309;60460;-82
2022/06/20 02:03:25;;;;;;;4.80;3.40;;;;;;;25.68;47.13;100807.92;104605;1309;60577;-82
2022/06/20 02:05:53;;;;;;;4.80;3.40;;;;;;;25.68;47.42;100806.28;104504;1309;60474;-82
2022/06/20 02:08:19;;;;;;;4.80;3.70;;;;;;;25.68;47.28;100803.78;104705;1306;60748;-82
2022/06/20 02:10:54;;;;;;;5.60;3.30;;;;;;;25.68;47.31;100804.52;104681;1306;61323;-82
2022/06/20 02:13:20;;;;;;;5.20;3.50;;;;;;;25.68;47.38;100805.02;104626;1309;72917;-82
2022/06/20 02:15:46;;;;;;;5.20;3.40;;;;;;;25.68;47.35;100805.60;104619;1309;60456;-82
2022/06/20 02:18:12;;;;;;;5.10;3.50;;;;;;;25.68;47.28;100803.44;104632;1309;60494;-82
2022/06/20 02:20:51;;;;;;;7.40;3.40;;;;;;;25.67;47.45;100807.45;104501;1309;60507;-82
2022/06/20 02:23:19;;;;;;;;;;;;;;;25.68;47.54;100803.46;104550;1309;72793;-82
2022/06/20 02:25:46;;;;;;;4.40;3.20;;;;;;;25.66;47.40;100806.73;104629;1306;74943;-82
2022/06/20 02:28:14;;;;;;;5.20;3.40;;;;;;;25.66;47.53;100806.84;104610;1306;60514;-82
2022/06/20 02:30:58;;;;;;;5.90;3.60;;;;;;;25.65;47.37;100811.60;104707;1306;61383;-82
2022/06/20 02:33:27;;;;;;;6.70;3.30;;;;;;;25.66;47.46;100811.91;104519;1309;60456;-82
2022/06/20 02:35:53;;;;;;;5.10;3.50;;;;;;;25.66;47.34;100812.45;104664;1306;73839;-82
2022/06/20 02:38:20;;;;;;;5.60;3.50;;;;;;;25.66;47.42;100819.30;104512;1307;61047;-82
2022/06/20 02:40:47;;;;;;;4.90;3.70;;;;;;;25.66;47.43;100818.23;104642;1306;60440;-82
2022/06/20 02:43:16;;;;;;;5.20;3.30;;;;;;;25.66;47.57;100820.20;104693;1306;60609;-82
2022/06/20 02:45:41;;;;;;;5.70;3.20;;;;;;;25.67;47.47;100823.79;104623;1309;73947;-82
2022/06/20 02:48:08;;;;;;;6.60;3.50;;;;;;;25.66;47.44;100825.63;104642;1306;60482;-82
2022/06/20 02:50:39;;;;;;;4.80;3.20;;;;;;;25.66;47.55;100827.23;104535;1306;60998;-82
2022/06/20 02:53:13;;;;;;;4.80;3.20;;;;;;;25.66;47.54;100818.77;104679;1306;72685;-82
2022/06/20 02:55:39;;;;;;;4.20;3.20;;;;;;;25.66;47.47;100821.11;104623;1306;73877;-82
2022/06/20 02:58:14;;;;;;;6.20;3.40;;;;;;;25.67;47.56;100816.55;104631;1306;61756;-82
2022/06/20 03:00:48;;;;;;;3.80;3.10;;;;;;;25.67;47.62;100818.88;104658;1306;61536;-82
2022/06/20 03:03:19;;;;;;;5.00;3.10;;;;;;;25.67;47.64;100820.88;104667;1306;74992;-82
2022/06/20 03:05:45;;;;;;;4.90;3.30;;;;;;;25.66;47.60;100824.16;104678;1306;73936;-82
2022/06/20 03:08:12;;;;;;;6.90;3.40;;;;;;;25.66;47.51;100825.23;104519;1306;60638;-82
2022/06/20 03:10:40;;;;;;;5.20;3.40;;;;;;;25.67;47.53;100827.91;104711;1306;60499;-82
2022/06/20 03:13:05;;;;;;;4.70;2.90;;;;;;;25.66;47.57;100829.52;104548;1308;73991;-82
2022/06/20 03:15:31;;;;;;;4.80;3.10;;;;;;;25.67;47.57;100829.30;104617;1306;60955;-82
2022/06/20 03:17:58;;;;;;;5.10;3.60;;;;;;;25.67;47.64;100825.17;104664;1306;60564;-82
2022/06/20 03:20:25;;;;;;;4.50;3.40;;;;;;;25.67;47.62;100821.56;104682;1306;60521;-81
2022/06/20 03:23:24;;;;;;;4.80;3.00;;;;;;;25.67;47.68;100814.90;104654;1307;60558;-81
2022/06/20 03:25:50;;;;;;;5.30;3.00;;;;;;;25.67;47.58;100808.95;104660;1309;75005;-81
2022/06/20 03:28:21;;;;;;;4.40;2.90;;;;;;;25.67;47.74;100811.31;104606;1306;60852;-81
2022/06/20 03:30:46;;;;;;;5.40;3.10;;;;;;;25.67;47.62;100821.05;104659;1306;61826;-81
2022/06/20 03:33:13;;;;;;;5.60;3.20;;;;;;;25.67;47.64;100820.48;104591;1306;60621;-81
2022/06/20 03:35:43;;;;;;;4.90;2.90;;;;;;;25.67;47.60;100812.19;104685;1306;74116;-81
2022/06/20 03:38:09;;;;;;;6.00;3.50;;;;;;;25.67;47.73;100810.40;104598;1306;62459;-82
2022/06/20 03:40:35;;;;;;;4.50;3.10;;;;;;;25.67;47.60;100804.98;104610;1306;60526;-82
2022/06/20 03:43:01;;;;;;;4.70;3.10;;;;;;;25.67;47.64;100802.98;104600;1306;60524;-82
2022/06/20 03:45:30;;;;;;;4.40;3.10;;;;;;;25.67;47.46;100800.48;104668;1307;60488;-82
2022/06/20 03:48:00;;;;;;;;;;;;;;;25.67;47.61;100799.93;104699;1306;60367;-82
2022/06/20 03:50:30;;;;;;;5.20;2.90;;;;;;;25.65;47.71;100804.59;104634;1309;62569;-81
2022/06/20 03:53:02;;;;;;;5.20;3.20;;;;;;;25.66;47.53;100795.38;104639;1306;73848;-81
2022/06/20 03:55:32;;;;;;;5.20;3.00;;;;;;;25.66;47.60;100795.15;104623;1309;75004;-82
2022/06/20 03:58:19;;;;;;;5.50;2.90;;;;;;;25.66;47.62;100794.80;104657;1306;61402;-82
2022/06/20 04:01:03;;;;;;;5.00;3.20;;;;;;;25.66;47.60;100801.48;104849;1305;61432;-82
2022/06/20 04:03:38;;;;;;;5.60;3.10;;;;;;;25.66;47.68;100798.26;104703;1306;73633;-82
2022/06/20 04:06:25;;;;;;;5.20;3.50;;;;;;;25.65;47.56;100791.25;104839;1304;75194;-82
2022/06/20 04:12:09;;;;;;;5.30;3.00;;;;;;;25.64;47.54;100790.99;104815;1306;61207;-82
2022/06/20 04:14:46;;;;;;;5.80;3.20;;;;;;;25.65;47.63;100793.84;104596;1306;71759;-82
2022/06/20 04:20:42;;;;;;;5.30;3.10;;;;;;;25.64;47.50;100792.80;104554;1306;61278;-82
2022/06/20 04:23:12;;;;;;;6.60;3.00;;;;;;;25.64;47.41;100794.09;104706;1306;60575;-82
2022/06/20 04:25:52;;;;;;;7.10;3.10;;;;;;;25.64;47.32;100796.63;104532;1308;73780;-82
2022/06/20 04:28:33;;;;;;;7.30;3.20;;;;;;;25.64;47.23;100797.69;104697;1306;73840;-82
2022/06/20 04:31:04;;;;;;;8.70;3.70;;;;;;;25.64;47.06;100797.55;104556;1306;60666;-81
2022/06/20 04:34:01;;;;;;;10.90;3.10;;;;;;;25.64;47.06;100795.38;104618;1306;60777;-82
2022/06/20 04:36:33;;;;;;;9.20;3.40;;;;;;;25.63;47.00;100799.89;104553;1308;73061;-82
2022/06/20 04:39:09;;;;;;;6.80;3.30;;;;;;;25.64;46.70;100806.19;104587;1306;75310;-82
2022/06/20 04:41:58;;;;;;;7.20;3.30;;;;;;;25.64;46.71;100803.25;104592;1306;60561;-82
2022/06/20 04:44:37;;;;;;;7.30;3.40;;;;;;;25.65;46.67;100797.25;104766;1306;60816;-82
2022/06/20 04:47:05;;;;;;;7.00;3.10;;;;;;;25.65;46.51;100797.45;104743;1306;72495;-82
2022/06/20 04:49:30;;;;;;;7.00;3.30;;;;;;;25.65;46.45;100798.48;104833;1306;73963;-81
2022/06/20 04:51:56;;;;;;;6.40;3.40;;;;;;;25.65;46.41;100796.32;104714;1306;60434;-82
2022/06/20 04:54:22;;;;;;;8.70;3.80;;;;;;;25.66;46.25;100794.30;104649;1306;60463;-82
2022/06/20 04:56:50;;;;;;;6.20;3.30;;;;;;;25.66;46.19;100796.99;104708;1306;60360;-82
2022/06/20 04:59:26;;;;;;;7.30;3.30;;;;;;;25.65;46.10;100797.25;104595;1307;61040;-82
2022/06/20 05:01:52;;;;;;;6.00;3.30;;;;;;;25.65;45.97;100796.00;104867;1306;61402;-82
2022/06/20 05:04:31;;;;;;;5.10;2.80;;;;;;;25.64;46.00;100793.73;104719;1306;60423;-82
2022/06/20 05:07:01;;;;;;;6.30;3.50;;;;;;;25.65;45.97;100789.16;104609;1306;73795;-82
2022/06/20 05:09:47;;;;;;;10.60;3.40;;;;;;;25.65;45.89;100783.87;104840;1306;74142;-82
2022/06/20 05:12:21;;;;;;;6.60;3.40;;;;;;;25.66;45.84;100781.69;104875;1306;60420;-81
2022/06/20 05:14:51;;;;;;;6.90;3.60;;;;;;;25.66;45.86;100782.69;104835;1306;60606;-81
2022/06/20 05:17:24;;;;;;;8.60;3.20;;;;;;;25.67;45.68;100782.23;104712;1306;72684;-81
2022/06/20 05:19:52;;;;;;;6.30;3.40;;;;;;;25.68;45.56;100779.81;104511;1309;74177;-81
2022/06/20 05:22:25;;;;;;;6.00;3.20;;;;;;;25.69;45.72;100779.58;104753;1306;60567;-82
2022/06/20 05:24:50;;;;;;;5.30;3.10;;;;;;;25.69;45.38;100777.55;104642;1306;60639;-81
2022/06/20 05:27:33;;;;;;;7.50;3.20;;;;;;;25.71;45.36;100777.97;104640;1306;60543;-82
2022/06/20 05:30:03;;;;;;;6.80;3.00;;;;;;;25.72;45.28;100777.83;104616;1306;73345;-82
2022/06/20 05:32:55;;;;;;;6.70;3.20;;;;;;;25.73;45.03;100778.83;104781;1305;61283;-82
2022/06/20 05:35:23;;;;;;;6.00;2.90;;;;;;;25.74;45.07;100776.16;104596;1306;60399;-82
2022/06/20 05:37:52;;;;;;;8.50;3.40;;;;;;;25.76;45.05;100772.80;104584;1306;73997;-82
2022/06/20 05:40:52;;;;;;;7.30;3.50;;;;;;;25.77;45.07;100773.06;104508;1305;74026;-82
2022/06/20 05:43:20;;;;;;;6.60;3.30;;;;;;;25.80;45.11;100774.47;104607;1306;60611;-82
2022/06/20 05:46:01;;;;;;;6.60;3.10;;;;;;;25.81;44.86;100778.09;104551;1305;60635;-82
2022/06/20 05:48:39;;;;;;;5.60;2.90;;;;;;;25.84;44.86;100778.95;104478;1306;72717;-83
2022/06/20 05:51:06;;;;;;;7.10;3.20;;;;;;;25.86;44.83;100776.39;104283;1306;75321;-81
2022/06/20 05:53:50;;;;;;;6.60;3.30;;;;;;;25.87;44.56;100776.25;104528;1306;60357;-83
2022/06/20 05:56:41;;;;;;;7.30;2.90;;;;;;;25.89;44.52;100774.83;104507;1306;61526;-82
2022/06/20 05:59:24;;;;;;;6.20;3.30;;;;;;;25.91;44.49;100769.23;104522;1306;72664;-82
2022/06/20 06:01:50;;;;;;;7.70;3.10;;;;;;;25.93;44.51;100769.94;104512;1306;74844;-83
2022/06/20 06:04:37;;;;;;;4.70;3.00;;;;;;;25.95;44.26;100768.86;104495;1305;60466;-82
2022/06/20 06:07:09;;;;;;;5.00;2.90;;;;;;;25.97;44.18;100758.26;104443;1307;60515;-82
2022/06/20 06:09:50;;;;;;;10.10;3.30;;;;;;;25.99;44.10;100755.74;104547;1306;74019;-83
2022/06/20 06:12:22;;;;;;;9.00;3.50;;;;;;;26.00;44.11;100756.91;104394;1307;74403;-82
2022/06/20 06:15:11;;;;;;;7.10;3.30;;;;;;;26.01;44.07;100749.92;104500;1305;61635;-82
2022/06/20 06:17:50;;;;;;;10.10;3.20;;;;;;;26.02;43.95;100747.88;104525;1306;61507;-81
2022/06/20 06:20:24;;;;;;;6.80;3.00;;;;;;;26.02;44.16;100742.77;104668;1306;73743;-82
2022/06/20 06:22:53;;;;;;;5.30;3.00;;;;;;;26.04;44.06;100739.08;104538;1306;73998;-81
2022/06/20 06:25:24;;;;;;;9.10;3.30;;;;;;;26.05;43.81;100735.20;105454;1306;61360;-82
2022/06/20 06:27:52;;;;;;;6.80;3.30;;;;;;;26.05;44.16;100730.42;103953;1306;897355;-82
2022/06/20 06:30:22;;;;;;;7.50;3.20;;;;;;;26.07;43.79;100726.30;104822;1307;73836;-82
2022/06/20 06:33:05;;;;;;;7.70;3.10;;;;;;;26.09;43.91;100727.24;104453;1306;74863;-82
2022/06/20 06:35:40;;;;;;;6.30;2.80;;;;;;;26.10;44.04;100719.58;104593;1306;61325;-82
2022/06/20 06:38:11;;;;;;;6.80;3.10;;;;;;;26.10;43.83;100720.06;104626;1306;60369;-82
2022/06/20 06:40:49;;;;;;;7.00;3.10;;;;;;;26.12;43.80;100716.11;104461;1306;73260;-82
2022/06/20 06:43:28;;;;;;;5.30;3.10;;;;;;;26.13;43.62;100715.70;104489;1306;75595;-82
2022/06/20 06:45:58;;;;;;;8.10;3.10;;;;;;;26.14;43.89;100716.89;104495;1306;60532;-82
2022/06/20 06:48:35;;;;;;;5.90;3.00;;;;;;;26.14;43.83;100712.88;104539;1306;60488;-82
2022/06/20 06:51:20;;;;;;;6.30;3.00;;;;;;;26.15;43.94;100711.71;104636;1306;73889;-82
2022/06/20 06:54:16;;;;;;;6.50;2.80;;;;;;;26.15;43.74;100707.77;104504;1306;74826;-82
2022/06/20 06:56:48;;;;;;;5.50;3.00;;;;;;;26.14;43.78;100707.78;104468;1306;62936;-82
2022/06/20 06:59:30;;;;;;;5.50;2.90;;;;;;;26.15;43.68;100708.98;104468;1306;61424;-82
2022/06/20 07:01:58;;;;;;;5.80;2.90;;;;;;;26.16;43.69;100710.20;104555;1305;72846;-82
2022/06/20 07:04:27;;;;;;;6.80;2.80;;;;;;;26.16;43.56;100705.50;104497;1306;72785;-82
2022/06/20 07:07:16;;;;;;;5.50;2.90;;;;;;;26.16;43.77;100707.64;104481;1306;60765;-82
2022/06/20 07:09:46;;;;;;;;;;;;;;;26.16;43.82;100704.05;104682;1306;61309;-82
2022/06/20 07:12:38;;;;;;;6.80;2.80;;;;;;;26.14;43.69;100703.30;104667;1305;72830;-82
2022/06/20 07:15:13;;;;;;;4.80;2.80;;;;;;;26.15;43.65;100697.81;104121;1312;75071;-82
2022/06/20 07:17:59;;;;;;;5.00;2.80;;;;;;;26.15;43.66;100699.77;104078;1312;61440;-82
2022/06/20 07:20:27;;;;;;;6.50;2.80;;;;;;;26.15;43.64;100694.70;104372;1309;61497;-83
2022/06/20 07:22:53;;;;;;;8.40;2.80;;;;;;;26.16;43.73;100696.50;104132;1309;71637;-82
2022/06/20 07:25:34;;;;;;;6.30;2.80;;;;;;;26.16;43.45;100702.24;104278;1309;60922;-82
2022/06/20 07:28:06;;;;;;;7.70;2.60;;;;;;;26.17;43.64;100698.18;104142;1312;60641;-82
2022/06/20 07:30:37;;;;;;;6.50;2.70;;;;;;;26.17;43.62;100697.98;104163;1312;60538;-82
2022/06/20 07:33:11;;;;;;;6.40;2.70;;;;;;;26.18;43.40;100696.79;104090;1312;74009;-82
2022/06/20 07:35:41;;;;;;;7.60;3.30;;;;;;;26.18;43.56;100693.86;104157;1312;74084;-83
2022/06/20 07:38:16;;;;;;;5.90;2.70;;;;;;;26.19;43.64;100691.48;104727;1312;62403;-83
2022/06/20 07:40:48;;;;;;;4.90;2.40;;;;;;;26.19;43.57;100690.54;104204;1312;60754;-82
2022/06/20 07:43:33;;;;;;;5.60;2.80;;;;;;;26.19;43.39;100683.51;104123;1312;72742;-82
2022/06/20 07:46:03;;;;;;;4.70;2.70;;;;;;;26.19;43.50;100680.26;104164;1311;75097;-82
2022/06/20 07:48:36;;;;;;;5.20;2.50;;;;;;;26.20;43.61;100679.65;104053;1312;60231;-82
2022/06/20 07:51:11;;;;;;;6.20;3.00;;;;;;;26.20;43.40;100677.83;104302;1311;60619;-82
2022/06/20 07:54:27;;;;;;;5.80;2.70;;;;;;;26.20;43.48;100675.10;104402;1306;72806;-82
2022/06/20 07:57:09;;;;;;;4.50;2.90;;;;;;;26.19;43.47;100675.76;103706;1318;75184;-82
2022/06/20 07:59:38;;;;;;;4.60;2.60;;;;;;;26.19;43.35;100673.60;103612;1317;60557;-82
2022/06/20 08:02:22;;;;;;;4.70;2.60;;;;;;;26.20;43.31;100670.83;103666;1318;59802;-82
2022/06/20 08:04:52;;;;;;;4.50;2.50;;;;;;;26.20;43.35;100670.23;103413;1318;72978;-81
2022/06/20 08:07:24;;;;;;;5.30;2.60;;;;;;;26.20;43.47;100669.14;103339;1318;75873;-82
2022/06/20 08:09:57;;;;;;;6.30;2.60;;;;;;;26.21;43.35;100667.70;103575;1318;60349;-81
2022/06/20 08:12:45;;;;;;;6.70;2.60;;;;;;;26.20;43.29;100669.58;103567;1317;60932;-81
2022/06/20 08:15:21;;;;;;;5.30;2.60;;;;;;;26.18;43.03;100669.02;103552;1318;72837;-81
2022/06/20 08:17:47;;;;;;;5.80;2.60;;;;;;;26.17;42.97;100666.05;103560;1318;74418;-81
2022/06/20 08:20:13;;;;;;;6.50;2.80;;;;;;;26.16;43.07;100666.11;103539;1318;60467;-82
2022/06/20 08:22:43;;;;;;;8.20;2.40;;;;;;;26.15;42.72;100661.77;103190;1318;60418;-81
2022/06/20 08:25:22;;;;;;;4.60;2.50;;;;;;;26.14;42.80;100664.55;103546;1318;73896;-81
2022/06/20 08:27:55;;;;;;;6.50;3.10;;;;;;;26.14;43.07;100661.29;103493;1318;74454;-81
2022/06/20 08:30:52;;;;;;;6.10;2.80;;;;;;;26.14;43.10;100661.29;103478;1319;60686;-81
2022/06/20 08:33:44;;;;;;;8.50;2.70;;;;;;;26.13;43.19;100662.61;104182;1309;60494;-81
2022/06/20 08:36:23;;;;;;;4.30;2.80;;;;;;;26.13;43.21;100661.56;103977;1314;73968;-81
2022/06/20 08:39:21;;;;;;;5.00;2.60;;;;;;;26.14;43.24;100658.45;104040;1313;74225;-81
2022/06/20 08:42:00;;;;;;;6.40;2.80;;;;;;;26.13;43.18;100658.11;104085;1313;61495;-81
2022/06/20 08:44:41;;;;;;;7.80;2.40;;;;;;;26.13;43.51;100663.16;104097;1313;60641;-81
2022/06/20 08:47:27;;;;;;;5.00;2.50;;;;;;;26.14;43.41;100658.59;104031;1313;72868;-81
2022/06/20 08:50:17;;;;;;;23.70;5.60;;;;;;;26.14;43.66;100658.26;104060;1313;73874;-81
2022/06/20 08:53:22;;;;;;;13.00;3.60;;;;;;;26.14;43.06;100656.26;104145;1313;60519;-81
2022/06/20 08:55:53;;;;;;;9.40;3.30;;;;;;;26.14;42.87;100650.48;104033;1315;61397;-81
2022/06/20 08:58:25;;;;;;;6.90;2.70;;;;;;;26.14;42.90;100650.50;104022;1315;72869;-81
2022/06/20 09:01:19;;;;;;;7.90;2.80;;;;;;;26.14;42.96;100645.44;103915;1316;74721;-81
2022/06/20 09:04:27;;;;;;;5.10;2.60;;;;;;;26.13;43.03;100650.39;104065;1315;60374;-81
2022/06/20 09:06:55;;;;;;;8.20;2.70;;;;;;;26.13;42.82;100645.39;104031;1315;60529;-82
2022/06/20 09:09:50;;;;;;;4.20;2.60;;;;;;;26.13;42.54;100646.61;104003;1315;73663;-81
2022/06/20 09:12:56;;;;;;;4.20;2.70;;;;;;;26.12;42.36;100645.07;103073;1321;72947;-84
2022/06/20 09:15:45;;;;;;;5.70;2.60;;;;;;;26.12;41.94;100644.70;102683;1326;61466;-84
2022/06/20 09:18:10;;;;;;;7.40;2.90;;;;;;;26.13;41.88;100640.13;102711;1325;60578;-81
2022/06/20 09:20:57;;;;;;;4.90;2.70;;;;;;;26.13;41.71;100643.30;102736;1325;60515;-81
2022/06/20 09:23:29;;;;;;;4.50;2.60;;;;;;;26.14;41.70;100635.52;102694;1325;74010;-81
2022/06/20 09:26:19;;;;;;;5.30;2.40;;;;;;;26.14;41.60;100635.16;102697;1325;61438;-82
2022/06/20 09:29:37;;;;;;;4.50;2.40;;;;;;;26.14;41.70;100638.21;103044;1322;61688;-81
2022/06/20 09:32:16;;;;;;;6.80;2.70;;;;;;;26.14;41.62;100634.03;103678;1322;73668;-82
2022/06/20 09:34:47;;;;;;;;;;;;;;;26.15;41.62;100628.20;103302;1322;64991;-82
2022/06/20 09:37:38;;;;;;;5.80;2.70;;;;;;;26.15;41.49;100624.98;103067;1323;60433;-82
2022/06/20 09:40:29;;;;;;;7.30;2.80;;;;;;;26.17;41.27;100628.73;103056;1323;61184;-82
2022/06/20 09:43:02;;;;;;;5.20;2.80;;;;;;;26.18;41.11;100627.34;103202;1323;73164;-81
2022/06/20 09:45:36;;;;;;;6.50;2.80;;;;;;;26.19;40.88;100627.80;103060;1323;74027;-81
2022/06/20 09:48:11;;;;;;;5.40;3.00;;;;;;;26.19;40.71;100627.77;103149;1322;61200;-81
2022/06/20 09:50:44;;;;;;;6.60;3.00;;;;;;;26.20;40.50;100625.00;103853;1308;60755;-81
2022/06/20 09:53:22;;;;;;;5.80;2.90;;;;;;;26.20;40.43;100622.08;104532;1309;73869;-81
2022/06/20 09:56:07;;;;;;;7.60;3.90;;;;;;;26.20;40.40;100616.67;104470;1308;74154;-81
2022/06/20 09:58:47;;;;;;;5.10;3.20;;;;;;;26.20;40.56;100610.94;104371;1308;61453;-81
2022/06/20 10:01:23;;;;;;;6.20;3.30;;;;;;;26.20;40.29;100608.20;104332;1309;61185;-81
2022/06/20 10:03:53;;;;;;;4.40;3.00;;;;;;;26.21;40.52;100607.26;104388;1308;74141;-82
2022/06/20 10:06:41;;;;;;;8.50;3.20;;;;;;;26.21;40.27;100605.27;104389;1309;74978;-82
2022/06/20 10:09:08;;;;;;;9.60;3.20;;;;;;;26.22;40.37;100600.83;104484;1308;60565;-81
2022/06/20 10:11:47;;;;;;;7.20;3.10;;;;;;;26.22;40.23;100597.00;104536;1306;62159;-82
2022/06/20 10:14:18;;;;;;;6.30;3.10;;;;;;;26.23;39.96;100591.87;104570;1306;74133;-82
2022/06/20 10:16:59;;;;;;;4.20;2.80;;;;;;;26.23;39.81;100591.16;104576;1306;73822;-82
2022/06/20 10:19:39;;;;;;;6.40;3.00;;;;;;;26.24;39.71;100589.48;104489;1306;61280;-82
2022/06/20 10:22:27;;;;;;;7.20;2.80;;;;;;;26.24;39.67;100585.42;105108;1306;60609;-82
2022/06/20 10:25:16;;;;;;;6.90;3.10;;;;;;;26.24;39.72;100579.67;104995;1306;73857;-81
2022/06/20 10:28:01;;;;;;;8.30;2.70;;;;;;;26.25;39.53;100581.23;105607;1305;74946;-82
2022/06/20 10:30:49;;;;;;;7.10;2.90;;;;;;;26.26;39.48;100577.54;104590;1306;60583;-82
2022/06/20 10:33:29;;;;;;;6.90;2.70;;;;;;;26.29;39.42;100578.38;105183;1305;61669;-82
2022/06/20 10:36:39;;;;;;;115.30;11.50;;;;;;;26.30;39.23;100576.60;104817;1306;73905;-81
2022/06/20 10:39:23;;;;;;;140.50;10.20;;;;;;;26.31;39.28;100570.59;104529;1306;74094;-81
2022/06/20 10:42:32;;;;;;;73.30;7.20;;;;;;;26.32;39.10;100570.13;104618;1306;60342;-82
2022/06/20 10:45:27;;;;;;;53.70;6.20;;;;;;;26.32;39.05;100567.27;104377;1312;60487;-81
2022/06/20 10:48:17;;;;;;;21.20;3.60;;;;;;;26.31;39.05;100568.55;104304;1312;72965;-81
2022/06/20 10:50:49;;;;;;;21.40;4.00;;;;;;;26.32;38.99;100569.77;104290;1312;75094;-82
2022/06/20 10:53:52;;;;;;;35.20;4.10;;;;;;;26.32;38.87;100570.86;104361;1311;60543;-82
2022/06/20 10:56:29;;;;;;;81.80;6.10;;;;;;;26.31;38.71;100567.48;104215;1312;61205;-81
2022/06/20 10:59:24;;;;;;;294.30;15.20;;;;;;;26.31;38.73;100566.23;104152;1312;74094;-82
2022/06/20 11:02:02;;;;;;;171.90;10.50;;;;;;;26.31;38.68;100561.22;104054;1312;75100;-81
2022/06/20 11:04:38;;;;;;;228.90;13.60;;;;;;;26.31;38.55;100553.96;104082;1311;60548;-82
2022/06/20 11:07:30;;;;;;;142.50;11.00;;;;;;;26.31;38.54;100550.33;104523;1312;60684;-81
2022/06/20 11:10:31;;;;;;;120.30;9.40;;;;;;;26.31;38.40;100547.52;104375;1312;73629;-81
2022/06/20 11:13:41;;;;;;;130.60;9.20;;;;;;;26.30;38.48;100544.71;104311;1312;74377;-81
2022/06/20 11:16:14;;;;;;;83.80;7.60;;;;;;;26.29;38.82;100539.62;104385;1312;60513;-81
2022/06/20 11:19:32;;;;;;;133.70;9.50;;;;;;;26.28;39.21;100532.63;104392;1312;60510;-81
2022/06/20 11:22:29;;;;;;;94.40;7.50;;;;;;;26.26;38.90;100527.52;104162;1312;73781;-81
2022/06/20 11:25:03;;;;;;;104.40;7.70;;;;;;;26.26;38.93;100525.04;104196;1312;75174;-82
2022/06/20 11:27:38;;;;;;;102.00;8.50;;;;;;;26.26;38.95;100519.44;104360;1312;60404;-82
2022/06/20 11:30:25;;;;;;;85.80;6.70;;;;;;;26.26;38.94;100516.92;104349;1312;60363;-81
2022/06/20 11:34:00;;;;;;;33.50;4.70;;;;;;;26.25;38.99;100512.45;104283;1312;72528;-81
2022/06/20 11:36:14;;;;;;;36.20;4.40;;;;;;;26.24;39.41;100509.70;104226;1311;74874;-81
2022/06/20 11:39:09;;;;;;;49.10;5.80;;;;;;;26.24;39.69;100506.99;104355;1312;60491;-81
2022/06/20 11:41:46;;;;;;;25.90;4.50;;;;;;;26.24;39.53;100498.55;104354;1312;61376;-81
2022/06/20 11:44:33;;;;;;;32.00;4.60;;;;;;;26.23;39.99;100493.17;104361;1312;74027;-81
2022/06/20 11:47:10;;;;;;;28.50;4.30;;;;;;;26.23;40.14;100486.02;104392;1312;74076;-82
2022/06/20 11:50:13;;;;;;;21.20;3.80;;;;;;;26.22;40.40;100484.08;104352;1312;60676;-81
2022/06/20 11:52:56;;;;;;;33.20;4.30;;;;;;;26.21;40.27;100480.39;104348;1312;60490;-81
2022/06/20 11:55:40;;;;;;;15.90;4.20;;;;;;;26.22;40.31;100476.05;104375;1312;73944;-81
2022/06/20 11:58:16;;;;;;;18.50;3.90;;;;;;;26.22;40.08;100474.77;104596;1306;73876;-81
2022/06/20 12:00:51;;;;;;;16.10;3.60;;;;;;;26.22;40.06;100474.77;104829;1306;61556;-81
2022/06/20 12:03:46;;;;;;;36.10;4.90;;;;;;;26.22;39.77;100475.09;104838;1306;60480;-82
2022/06/20 12:06:23;;;;;;;17.10;3.40;;;;;;;26.22;39.70;100471.13;104571;1307;73261;-81
2022/06/20 12:08:59;;;;;;;19.70;4.10;;;;;;;26.22;39.91;100469.64;104867;1306;75071;-82
2022/06/20 12:11:30;;;;;;;14.20;3.30;;;;;;;26.22;39.88;100468.56;104842;1306;60599;-81